createdAt,value
2022-11-22T00:00:21.102Z,96.48
2022-11-22T00:03:07.831Z,96.82
2022-11-22T00:05:34.265Z,97.54
2022-11-22T00:08:00.761Z,96.81
2022-11-22T00:10:26.988Z,95.70
2022-11-22T00:12:54.067Z,96.21
2022-11-22T00:15:20.295Z,96.42
2022-11-22T00:17:46.719Z,95.74
2022-11-22T00:20:13.570Z,96.02
2022-11-22T00:22:44.479Z,96.25
2022-11-22T00:25:12.353Z,96.77
2022-11-22T00:27:39.180Z,96.45
2022-11-22T00:30:05.898Z,96.89
2022-11-22T00:32:32.758Z,96.60
2022-11-22T00:34:58.973Z,96.55
2022-11-22T00:37:25.403Z,96.61
2022-11-22T00:39:51.492Z,96.88
2022-11-22T00:42:17.991Z,96.54
2022-11-22T00:44:44.080Z,96.29
2022-11-22T00:47:10.481Z,96.36
2022-11-22T00:49:36.631Z,96.64
2022-11-22T00:52:03.029Z,96.33
2022-11-22T00:54:29.145Z,96.64
2022-11-22T00:56:55.547Z,96.64
2022-11-22T00:59:21.750Z,96.30
2022-11-22T01:01:48.181Z,96.87
2022-11-22T01:04:14.288Z,96.63
2022-11-22T01:06:40.753Z,96.83
2022-11-22T01:09:07.838Z,96.48
2022-11-22T01:11:34.200Z,96.36
2022-11-22T01:14:00.286Z,97.16
2022-11-22T01:16:26.686Z,96.87
2022-11-22T01:18:52.811Z,96.40
2022-11-22T01:21:19.217Z,96.01
2022-11-22T01:23:45.341Z,97.05
2022-11-22T01:26:11.826Z,96.82
2022-11-22T01:28:37.962Z,96.82
2022-11-22T01:31:04.309Z,96.87
2022-11-22T01:33:30.426Z,97.11
2022-11-22T01:35:57.729Z,96.41
2022-11-22T01:38:23.890Z,97.02
2022-11-22T01:40:50.295Z,97.08
2022-11-22T01:43:22.608Z,96.38
2022-11-22T01:45:53.282Z,96.58
2022-11-22T01:48:31.095Z,96.00
2022-11-22T01:51:02.731Z,95.59
2022-11-22T01:53:34.312Z,95.63
2022-11-22T01:56:03.372Z,95.40
2022-11-22T01:58:33.037Z,95.62
2022-11-22T02:01:00.883Z,95.16
2022-11-22T02:03:28.810Z,95.58
2022-11-22T02:05:55.918Z,95.60
2022-11-22T02:08:55.636Z,95.20
2022-11-22T02:11:23.991Z,95.43
2022-11-22T02:13:51.800Z,95.44
2022-11-22T02:16:19.150Z,95.19
2022-11-22T02:18:45.368Z,95.11
2022-11-22T02:21:11.869Z,95.64
2022-11-22T02:23:45.334Z,95.48
2022-11-22T02:26:12.696Z,95.32
2022-11-22T02:28:39.932Z,94.98
2022-11-22T02:31:06.594Z,94.83
2022-11-22T02:33:32.887Z,94.90
2022-11-22T02:35:59.677Z,95.54
2022-11-22T02:38:30.874Z,95.75
2022-11-22T02:41:08.150Z,95.36
2022-11-22T02:43:39.454Z,95.07
2022-11-22T02:46:11.925Z,95.30
2022-11-22T02:48:42.115Z,95.55
2022-11-22T02:51:08.767Z,95.73
2022-11-22T02:53:34.920Z,96.19
2022-11-22T02:56:01.288Z,95.89
2022-11-22T02:58:27.767Z,95.94
2022-11-22T03:00:54.407Z,96.13
2022-11-22T03:03:20.655Z,95.48
2022-11-22T03:05:46.987Z,95.80
2022-11-22T03:08:13.024Z,96.21
2022-11-22T03:10:39.408Z,96.03
2022-11-22T03:13:05.560Z,96.16
2022-11-22T03:15:32.048Z,96.37
2022-11-22T03:17:59.383Z,96.43
2022-11-22T03:20:26.542Z,96.12
2022-11-22T03:22:53.041Z,96.56
2022-11-22T03:25:19.614Z,96.64
2022-11-22T03:27:47.667Z,96.23
2022-11-22T03:30:14.794Z,96.41
2022-11-22T03:32:41.354Z,96.55
2022-11-22T03:35:08.421Z,96.99
2022-11-22T03:37:34.576Z,96.40
2022-11-22T03:40:00.955Z,96.82
2022-11-22T03:42:27.119Z,96.71
2022-11-22T03:44:53.561Z,96.41
2022-11-22T03:47:19.877Z,96.33
2022-11-22T03:49:46.550Z,96.75
2022-11-22T03:52:12.824Z,96.33
2022-11-22T03:54:39.331Z,96.63
2022-11-22T03:57:05.820Z,96.07
2022-11-22T03:59:32.589Z,96.70
2022-11-22T04:01:59.479Z,97.13
2022-11-22T04:04:26.578Z,96.69
2022-11-22T04:06:53.015Z,96.80
2022-11-22T04:09:19.681Z,97.06
2022-11-22T04:11:46.090Z,97.37
2022-11-22T04:14:41.695Z,97.10
2022-11-22T04:17:07.821Z,97.16
2022-11-22T04:19:34.239Z,98.33
2022-11-22T04:22:00.328Z,98.04
2022-11-22T04:24:45.182Z,97.67
2022-11-22T04:27:11.303Z,98.14
2022-11-22T04:29:37.823Z,97.41
2022-11-22T04:32:22.667Z,97.62
2022-11-22T04:34:49.494Z,97.20
2022-11-22T04:37:15.682Z,96.72
2022-11-22T04:39:42.321Z,96.78
2022-11-22T04:42:27.387Z,96.57
2022-11-22T04:44:53.918Z,96.48
2022-11-22T04:47:38.566Z,96.49
2022-11-22T04:50:27.523Z,96.39
2022-11-22T04:52:55.826Z,96.89
2022-11-22T04:55:24.172Z,96.65
2022-11-22T04:57:53.213Z,97.07
2022-11-22T05:00:24.461Z,96.44
2022-11-22T05:02:50.866Z,96.43
2022-11-22T05:05:18.300Z,96.39
2022-11-22T05:07:44.516Z,96.13
2022-11-22T05:10:11.364Z,95.93
2022-11-22T05:12:37.435Z,96.65
2022-11-22T05:15:04.252Z,96.67
2022-11-22T05:17:30.476Z,96.56
2022-11-22T05:19:56.940Z,96.37
2022-11-22T05:22:47.449Z,96.91
2022-11-22T05:25:14.086Z,97.45
2022-11-22T05:27:40.235Z,96.78
2022-11-22T05:30:07.301Z,96.72
2022-11-22T05:32:33.705Z,97.88
2022-11-22T05:35:00.171Z,97.17
2022-11-22T05:37:26.317Z,97.04
2022-11-22T05:39:53.012Z,97.53
2022-11-22T05:42:19.145Z,96.97
2022-11-22T05:44:45.533Z,97.37
2022-11-22T05:47:12.017Z,97.56
2022-11-22T05:49:38.418Z,97.28
2022-11-22T05:52:04.808Z,97.28
2022-11-22T05:54:31.373Z,97.40
2022-11-22T05:56:58.161Z,97.58
2022-11-22T05:59:24.732Z,97.33
2022-11-22T06:01:51.043Z,97.90
2022-11-22T06:04:17.866Z,98.76
2022-11-22T06:06:46.450Z,98.57
2022-11-22T06:09:12.859Z,98.14
2022-11-22T06:11:39.019Z,98.09
2022-11-22T06:14:08.540Z,97.67
2022-11-22T06:16:34.732Z,98.31
2022-11-22T06:19:01.217Z,98.05
2022-11-22T06:21:28.026Z,98.40
2022-11-22T06:23:55.554Z,98.62
2022-11-22T06:26:23.973Z,99.36
2022-11-22T06:28:50.881Z,99.90
2022-11-22T06:31:18.480Z,100.00
2022-11-22T06:33:45.473Z,100.00
2022-11-22T06:36:19.064Z,100.00
2022-11-22T06:38:46.282Z,100.00
2022-11-22T06:41:15.402Z,99.76
2022-11-22T06:43:48.725Z,99.29
2022-11-22T06:46:17.313Z,99.93
2022-11-22T06:48:43.974Z,99.55
2022-11-22T06:51:19.008Z,99.04
2022-11-22T06:53:48.479Z,99.19
2022-11-22T06:56:37.067Z,99.58
2022-11-22T06:59:05.378Z,99.16
2022-11-22T07:01:33.696Z,99.37
2022-11-22T07:04:01.440Z,99.14
2022-11-22T07:06:30.173Z,98.89
2022-11-22T07:08:58.630Z,99.48
2022-11-22T07:11:27.388Z,99.52
2022-11-22T07:13:58.103Z,99.03
2022-11-22T07:16:27.632Z,98.69
2022-11-22T07:18:54.312Z,98.22
2022-11-22T07:21:23.033Z,98.81
2022-11-22T07:23:51.701Z,99.63
2022-11-22T07:26:20.420Z,99.20
2022-11-22T07:28:47.451Z,98.78
2022-11-22T07:31:15.812Z,100.00
2022-11-22T07:33:42.859Z,100.00
2022-11-22T07:36:17.338Z,100.00
2022-11-22T07:38:44.833Z,100.00
2022-11-22T07:41:11.147Z,100.00
2022-11-22T07:43:38.054Z,100.00
2022-11-22T07:46:32.285Z,100.00
2022-11-22T07:49:00.365Z,100.00
2022-11-22T07:51:27.096Z,100.00
2022-11-22T07:53:54.297Z,100.00
2022-11-22T07:56:20.479Z,100.00
2022-11-22T07:58:47.245Z,100.00
2022-11-22T08:01:16.064Z,100.00
2022-11-22T08:03:43.422Z,100.00
2022-11-22T08:06:11.611Z,100.00
2022-11-22T08:08:38.297Z,100.00
2022-11-22T08:11:05.719Z,100.00
2022-11-22T08:13:32.994Z,100.00
2022-11-22T08:16:12.308Z,100.00
2022-11-22T08:18:39.513Z,100.00
2022-11-22T08:21:08.968Z,100.00
2022-11-22T08:23:36.568Z,100.00
2022-11-22T08:26:04.222Z,100.00
2022-11-22T08:28:31.447Z,100.00
2022-11-22T08:31:03.368Z,100.00
2022-11-22T08:33:30.384Z,100.00
2022-11-22T08:35:56.736Z,100.00
2022-11-22T08:38:23.611Z,100.00
2022-11-22T08:40:50.344Z,100.00
2022-11-22T08:43:17.200Z,100.00
2022-11-22T08:45:45.663Z,100.00
2022-11-22T08:48:14.480Z,100.00
2022-11-22T08:50:59.007Z,100.00
2022-11-22T08:53:26.843Z,100.00
2022-11-22T08:55:54.197Z,100.00
2022-11-22T08:58:21.608Z,100.00
2022-11-22T09:00:48.201Z,100.00
2022-11-22T09:03:15.264Z,100.00
2022-11-22T09:08:31.283Z,100.00
2022-11-22T09:11:02.279Z,100.00
2022-11-22T09:13:29.677Z,100.00
2022-11-22T09:16:01.111Z,100.00
2022-11-22T09:18:27.794Z,100.00
2022-11-22T09:21:02.556Z,100.00
2022-11-22T09:23:30.660Z,100.00
2022-11-22T09:26:07.124Z,100.00
2022-11-22T09:28:34.468Z,100.00
2022-11-22T09:31:06.259Z,100.00
2022-11-22T09:33:34.157Z,100.00
2022-11-22T09:36:02.094Z,100.00
2022-11-22T09:38:29.598Z,100.00
2022-11-22T09:40:57.090Z,100.00
2022-11-22T09:43:31.772Z,100.00
2022-11-22T09:46:31.211Z,100.00
2022-11-22T09:49:12.919Z,100.00
2022-11-22T09:51:45.769Z,100.00
2022-11-22T09:54:26.338Z,100.00
2022-11-22T09:56:55.844Z,100.00
2022-11-22T09:59:28.845Z,100.00
2022-11-22T10:02:03.419Z,100.00
2022-11-22T10:04:43.500Z,100.00
2022-11-22T10:07:56.935Z,100.00
2022-11-22T10:10:34.018Z,100.00
2022-11-22T10:13:05.797Z,100.00
2022-11-22T10:15:44.152Z,100.00
2022-11-22T10:18:22.307Z,100.00
2022-11-22T10:20:49.459Z,100.00
2022-11-22T10:23:20.707Z,100.00
2022-11-22T10:26:02.105Z,100.00
2022-11-22T10:28:35.811Z,100.00
2022-11-22T10:31:14.271Z,100.00
2022-11-22T10:33:50.459Z,100.00
2022-11-22T10:36:29.283Z,100.00
2022-11-22T10:39:34.526Z,100.00
2022-11-22T10:42:14.240Z,100.00
2022-11-22T10:45:14.661Z,100.00
2022-11-22T10:48:17.923Z,100.00
2022-11-22T10:51:04.544Z,100.00
2022-11-22T10:53:43.249Z,100.00
2022-11-22T10:56:32.927Z,100.00
2022-11-22T10:59:28.716Z,100.00
2022-11-22T11:02:26.871Z,100.00
2022-11-22T11:04:57.075Z,100.00
2022-11-22T11:07:25.022Z,100.00
2022-11-22T11:10:11.478Z,100.00
2022-11-22T11:12:46.321Z,100.00
2022-11-22T11:15:37.338Z,100.00
2022-11-22T11:18:10.870Z,100.00
2022-11-22T11:20:41.574Z,100.00
2022-11-22T11:23:17.039Z,100.00
2022-11-22T11:25:46.416Z,100.00
2022-11-22T11:28:21.250Z,100.00
2022-11-22T11:31:21.413Z,100.00
2022-11-22T11:33:47.897Z,100.00
2022-11-22T11:36:22.725Z,100.00
2022-11-22T11:38:54.273Z,100.00
2022-11-22T11:41:25.602Z,100.00
2022-11-22T11:43:54.399Z,100.00
2022-11-22T11:46:57.259Z,100.00
2022-11-22T11:49:25.787Z,100.00
2022-11-22T11:52:02.936Z,100.00
2022-11-22T11:54:38.655Z,100.00
2022-11-22T11:57:19.042Z,100.00
2022-11-22T11:59:48.286Z,100.00
2022-11-22T12:02:24.044Z,100.00
2022-11-22T12:05:00.622Z,100.00
2022-11-22T12:07:33.377Z,100.00
2022-11-22T12:10:00.025Z,100.00
2022-11-22T12:12:29.215Z,100.00
2022-11-22T12:15:21.169Z,100.00
2022-11-22T12:18:24.128Z,100.00
2022-11-22T12:21:13.114Z,100.00
2022-11-22T12:23:50.711Z,100.00
2022-11-22T12:26:18.559Z,100.00
2022-11-22T12:28:46.770Z,100.00
2022-11-22T12:31:27.757Z,100.00
2022-11-22T12:33:58.974Z,100.00
2022-11-22T12:36:51.598Z,100.00
2022-11-22T12:39:25.507Z,100.00
2022-11-22T12:41:58.860Z,100.00
2022-11-22T12:44:26.323Z,100.00
2022-11-22T12:47:06.014Z,100.00
2022-11-22T12:49:44.159Z,100.00
2022-11-22T12:52:22.085Z,100.00
2022-11-22T12:54:54.949Z,100.00
2022-11-22T12:57:33.900Z,100.00
2022-11-22T13:00:27.271Z,100.00
2022-11-22T13:02:59.874Z,100.00
2022-11-22T13:05:32.882Z,100.00
2022-11-22T13:08:13.023Z,100.00
2022-11-22T13:11:05.543Z,100.00
2022-11-22T13:13:37.285Z,100.00
2022-11-22T13:16:08.523Z,100.00
2022-11-22T13:18:40.632Z,100.00
2022-11-22T13:21:40.240Z,100.00
2022-11-22T13:24:24.577Z,100.00
2022-11-22T13:27:28.817Z,100.00
2022-11-22T13:29:59.595Z,100.00
2022-11-22T13:32:34.612Z,100.00
2022-11-22T13:35:13.607Z,100.00
2022-11-22T13:37:50.213Z,100.00
2022-11-22T13:40:16.792Z,100.00
2022-11-22T13:42:43.666Z,100.00
2022-11-22T13:45:23.198Z,100.00
2022-11-22T13:47:51.299Z,100.00
2022-11-22T13:50:36.187Z,100.00
2022-11-22T13:53:28.770Z,100.00
2022-11-22T13:56:00.384Z,100.00
2022-11-22T13:58:27.315Z,100.00
2022-11-22T14:00:55.550Z,100.00
2022-11-22T14:03:31.639Z,100.00
2022-11-22T14:05:58.306Z,100.00
2022-11-22T14:08:40.726Z,100.00
2022-11-22T14:11:17.117Z,100.00
2022-11-22T14:14:02.809Z,100.00
2022-11-22T14:16:32.122Z,100.00
2022-11-22T14:19:19.702Z,100.00
2022-11-22T14:22:06.470Z,100.00
2022-11-22T14:25:00.686Z,100.00
2022-11-22T14:27:42.360Z,100.00
2022-11-22T14:30:37.052Z,100.00
2022-11-22T14:33:13.875Z,100.00
2022-11-22T14:36:06.816Z,100.00
2022-11-22T14:38:38.098Z,100.00
2022-11-22T14:41:43.328Z,100.00
2022-11-22T14:44:22.002Z,100.00
2022-11-22T14:46:55.872Z,100.00
2022-11-22T14:49:34.180Z,100.00
2022-11-22T14:52:01.034Z,100.00
2022-11-22T14:54:49.544Z,100.00
2022-11-22T14:57:20.179Z,100.00
2022-11-22T15:00:11.363Z,100.00
2022-11-22T15:03:11.749Z,100.00
2022-11-22T15:09:18.217Z,100.00
2022-11-22T15:09:42.117Z,100.00
2022-11-22T15:12:04.880Z,100.00
2022-11-22T15:14:50.210Z,100.00
2022-11-22T15:58:03.106Z,100.00
2022-11-22T16:00:29.981Z,100.00
2022-11-22T16:03:00.849Z,100.00
2022-11-22T16:06:07.929Z,100.00
2022-11-22T16:08:27.820Z,100.00
2022-11-22T16:10:59.634Z,100.00
2022-11-22T16:13:28.153Z,100.00
2022-11-22T16:16:05.509Z,100.00
2022-11-22T16:18:33.201Z,100.00
2022-11-22T16:21:03.445Z,100.00
2022-11-22T16:23:33.120Z,100.00
2022-11-22T16:26:18.485Z,100.00
2022-11-22T16:28:46.301Z,100.00
2022-11-22T16:31:15.768Z,100.00
2022-11-22T16:33:42.069Z,100.00
2022-11-22T16:36:11.519Z,100.00
2022-11-22T16:38:37.709Z,100.00
2022-11-22T16:41:05.520Z,100.00
2022-11-22T16:43:34.461Z,100.00
2022-11-22T16:46:02.287Z,100.00
2022-11-22T16:48:32.780Z,100.00
2022-11-22T16:51:06.207Z,100.00
2022-11-22T16:53:44.646Z,100.00
2022-11-22T16:56:17.832Z,100.00
2022-11-22T16:58:44.446Z,100.00
2022-11-22T17:01:15.260Z,100.00
2022-11-22T17:03:42.770Z,100.00
2022-11-22T17:06:21.135Z,100.00
2022-11-22T17:08:49.072Z,100.00
2022-11-22T17:11:18.722Z,100.00
2022-11-22T17:13:45.541Z,100.00
2022-11-22T17:16:13.464Z,100.00
2022-11-22T17:18:40.257Z,100.00
2022-11-22T17:21:17.747Z,100.00
2022-11-22T17:23:44.400Z,100.00
2022-11-22T17:26:11.134Z,100.00
2022-11-22T17:28:37.464Z,100.00
2022-11-22T17:31:11.515Z,100.00
2022-11-22T17:33:37.903Z,100.00
2022-11-22T17:36:05.993Z,100.00
2022-11-22T17:38:32.434Z,100.00
2022-11-22T17:40:59.526Z,100.00
2022-11-22T17:43:26.259Z,100.00
2022-11-22T17:45:53.099Z,100.00
2022-11-22T17:48:19.412Z,100.00
2022-11-22T17:50:46.049Z,100.00
2022-11-22T17:53:12.647Z,100.00
2022-11-22T17:56:08.570Z,100.00
2022-11-22T17:58:26.120Z,100.00
2022-11-22T18:01:01.870Z,100.00
2022-11-22T18:03:28.873Z,100.00
2022-11-22T18:05:55.731Z,100.00
2022-11-22T18:08:22.247Z,100.00
2022-11-22T18:10:56.196Z,100.00
2022-11-22T18:13:22.950Z,100.00
2022-11-22T18:15:57.349Z,100.00
2022-11-22T18:18:55.140Z,100.00
2022-11-22T18:21:17.466Z,100.00
2022-11-22T18:23:44.758Z,100.00
2022-11-22T18:29:38.618Z,100.00
2022-11-22T18:31:53.607Z,100.00
2022-11-22T18:34:22.308Z,100.00
2022-11-22T18:36:55.456Z,100.00
2022-11-22T18:39:24.625Z,100.00
2022-11-22T18:41:51.586Z,100.00
2022-11-22T18:44:18.104Z,100.00
2022-11-22T18:47:02.923Z,100.00
2022-11-22T18:49:29.812Z,100.00
2022-11-22T18:51:57.117Z,100.00
2022-11-22T18:54:28.667Z,100.00
2022-11-22T18:56:58.094Z,100.00
2022-11-22T18:59:24.386Z,100.00
2022-11-22T19:01:51.179Z,100.00
2022-11-22T19:04:17.647Z,100.00
2022-11-22T19:06:44.876Z,100.00
2022-11-22T19:09:11.649Z,100.00
2022-11-22T19:11:38.535Z,100.00
2022-11-22T19:14:05.025Z,100.00
2022-11-22T19:16:34.281Z,100.00
2022-11-22T19:19:03.828Z,100.00
2022-11-22T19:21:31.657Z,100.00
2022-11-22T19:24:01.125Z,100.00
2022-11-22T19:26:28.353Z,100.00
2022-11-22T19:28:55.943Z,100.00
2022-11-22T19:31:27.181Z,100.00
2022-11-22T19:33:53.740Z,100.00
2022-11-22T19:36:26.569Z,100.00
2022-11-22T19:38:57.771Z,100.00
2022-11-22T19:41:24.748Z,100.00
2022-11-22T19:43:52.355Z,100.00
2022-11-22T19:46:20.856Z,100.00
2022-11-22T19:48:52.027Z,100.00
2022-11-22T19:51:27.768Z,100.00
2022-11-22T19:54:01.954Z,100.00
2022-11-22T19:56:32.386Z,100.00
2022-11-22T19:59:06.097Z,100.00
2022-11-22T20:01:34.501Z,100.00
2022-11-22T20:04:05.038Z,100.00
2022-11-22T20:06:33.909Z,100.00
2022-11-22T20:09:01.308Z,100.00
2022-11-22T20:11:29.074Z,100.00
2022-11-22T20:13:55.890Z,100.00
2022-11-22T20:16:27.770Z,100.00
2022-11-22T20:18:59.083Z,100.00
2022-11-22T20:21:30.381Z,100.00
2022-11-22T20:24:15.619Z,100.00
2022-11-22T20:26:43.094Z,100.00
2022-11-22T20:29:29.064Z,100.00
2022-11-22T20:31:56.205Z,100.00
2022-11-22T20:34:29.986Z,100.00
2022-11-22T20:37:10.937Z,100.00
2022-11-22T20:39:37.333Z,100.00
2022-11-22T20:42:32.485Z,100.00
2022-11-22T20:44:53.792Z,100.00
2022-11-22T20:47:20.409Z,100.00
2022-11-22T20:49:46.580Z,100.00
2022-11-22T20:52:13.286Z,100.00
2022-11-22T20:54:39.486Z,100.00
2022-11-22T20:57:07.206Z,100.00
2022-11-22T20:59:34.472Z,100.00
2022-11-22T21:02:02.969Z,100.00
2022-11-22T21:04:31.657Z,100.00
2022-11-22T21:06:59.275Z,100.00
2022-11-22T21:09:33.856Z,100.00
2022-11-22T21:12:01.808Z,100.00
2022-11-22T21:14:28.725Z,100.00
2022-11-22T21:17:22.663Z,100.00
2022-11-22T21:19:56.079Z,100.00
2022-11-22T21:22:30.203Z,100.00
2022-11-22T21:25:22.353Z,100.00
2022-11-22T21:27:49.402Z,100.00
2022-11-22T21:30:17.029Z,100.00
2022-11-22T21:32:50.649Z,100.00
2022-11-22T21:35:17.164Z,100.00
2022-11-22T21:37:53.694Z,100.00
2022-11-22T21:40:20.285Z,100.00
2022-11-22T21:42:46.946Z,100.00
2022-11-22T21:45:13.357Z,100.00
2022-11-22T21:47:40.123Z,100.00
2022-11-22T21:50:11.458Z,100.00
2022-11-22T21:52:38.622Z,100.00
2022-11-22T21:55:05.285Z,100.00
2022-11-22T21:57:31.853Z,100.00
2022-11-22T21:59:58.040Z,100.00
2022-11-22T22:02:24.607Z,100.00
2022-11-22T22:04:51.593Z,100.00
2022-11-22T22:07:44.561Z,100.00
2022-11-22T22:10:05.274Z,100.00
2022-11-22T22:12:31.866Z,100.00
2022-11-22T22:14:58.092Z,100.00
2022-11-22T22:17:24.532Z,100.00
2022-11-22T22:19:51.684Z,100.00
2022-11-22T22:22:18.281Z,100.00
2022-11-22T22:24:44.438Z,100.00
2022-11-22T22:27:10.955Z,100.00
2022-11-22T22:29:37.167Z,100.00
2022-11-22T22:32:09.061Z,100.00
2022-11-22T22:34:36.624Z,100.00
2022-11-22T22:37:03.033Z,100.00
2022-11-22T22:39:29.621Z,100.00
2022-11-22T22:41:56.235Z,100.00
2022-11-22T22:44:22.497Z,100.00
2022-11-22T22:46:48.956Z,100.00
2022-11-22T22:49:15.118Z,100.00
2022-11-22T22:51:41.502Z,100.00
2022-11-22T22:54:09.507Z,100.00
2022-11-22T22:56:35.934Z,100.00
2022-11-22T22:59:04.423Z,100.00
2022-11-22T23:01:31.301Z,100.00
2022-11-22T23:03:59.070Z,100.00
2022-11-22T23:06:33.703Z,100.00
2022-11-22T23:09:00.276Z,100.00
2022-11-22T23:11:47.851Z,100.00
2022-11-22T23:14:16.810Z,100.00
2022-11-22T23:16:43.213Z,100.00
2022-11-22T23:19:10.917Z,100.00
2022-11-22T23:21:37.760Z,100.00
2022-11-22T23:24:05.255Z,100.00
2022-11-22T23:26:31.728Z,100.00
2022-11-22T23:28:59.011Z,100.00
2022-11-22T23:31:25.557Z,100.00
2022-11-22T23:33:51.736Z,100.00
2022-11-22T23:36:19.922Z,100.00
2022-11-22T23:38:46.247Z,100.00
2022-11-22T23:41:20.967Z,100.00
2022-11-22T23:43:51.942Z,100.00
2022-11-22T23:46:18.589Z,100.00
2022-11-22T23:48:46.425Z,100.00
2022-11-22T23:51:14.173Z,100.00
2022-11-22T23:53:40.299Z,100.00
2022-11-22T23:56:20.304Z,100.00
2022-11-22T23:58:48.203Z,100.00
